sensor_id;sensor_type;location;lat;lon;timestamp;pressure;altitude;pressure_sealevel;temperature;humidity
20015;BME280;61787;42.022;23.078;2023-02-20T00:00:32;97047.22;;;10.31;65.03
20015;BME280;61787;42.022;23.078;2023-02-20T00:01:34;97056.63;;;10.37;64.36
20015;BME280;61787;42.022;23.078;2023-02-20T00:02:36;97058.34;;;10.42;64.40
20015;BME280;61787;42.022;23.078;2023-02-20T00:03:38;97056.13;;;10.44;65.23
20015;BME280;61787;42.022;23.078;2023-02-20T00:04:39;97054.56;;;10.43;64.25
20015;BME280;61787;42.022;23.078;2023-02-20T00:05:41;97050.78;;;10.44;63.84
20015;BME280;61787;42.022;23.078;2023-02-20T00:06:43;97054.13;;;10.41;64.65
20015;BME280;61787;42.022;23.078;2023-02-20T00:07:44;97061.81;;;10.42;64.10
20015;BME280;61787;42.022;23.078;2023-02-20T00:08:46;97054.56;;;10.43;63.78
20015;BME280;61787;42.022;23.078;2023-02-20T00:09:48;97050.44;;;10.45;64.47
20015;BME280;61787;42.022;23.078;2023-02-20T00:10:49;97057.19;;;10.51;64.46
20015;BME280;61787;42.022;23.078;2023-02-20T00:11:51;97056.53;;;10.54;64.54
20015;BME280;61787;42.022;23.078;2023-02-20T00:12:52;97057.84;;;10.48;64.14
20015;BME280;61787;42.022;23.078;2023-02-20T00:13:54;97058.44;;;10.54;63.59
20015;BME280;61787;42.022;23.078;2023-02-20T00:14:55;97062.81;;;10.58;63.88
20015;BME280;61787;42.022;23.078;2023-02-20T00:15:59;97054.31;;;10.56;63.54
20015;BME280;61787;42.022;23.078;2023-02-20T00:17:00;97062.31;;;10.65;63.26
20015;BME280;61787;42.022;23.078;2023-02-20T00:18:02;97054.06;;;10.70;63.14
20015;BME280;61787;42.022;23.078;2023-02-20T00:19:04;97061.78;;;10.72;62.51
20015;BME280;61787;42.022;23.078;2023-02-20T00:20:06;97069.56;;;10.64;63.41
20015;BME280;61787;42.022;23.078;2023-02-20T00:21:08;97065.63;;;10.62;62.67
20015;BME280;61787;42.022;23.078;2023-02-20T00:22:09;97067.53;;;10.61;63.17
20015;BME280;61787;42.022;23.078;2023-02-20T00:23:11;97066.75;;;10.61;64.10
20015;BME280;61787;42.022;23.078;2023-02-20T00:24:14;97069.09;;;10.62;62.96
20015;BME280;61787;42.022;23.078;2023-02-20T00:25:17;97067.38;;;10.58;63.01
20015;BME280;61787;42.022;23.078;2023-02-20T00:26:19;97068.16;;;10.58;63.33
20015;BME280;61787;42.022;23.078;2023-02-20T00:27:20;97067.94;;;10.51;63.63
20015;BME280;61787;42.022;23.078;2023-02-20T00:28:22;97072.63;;;10.54;63.59
20015;BME280;61787;42.022;23.078;2023-02-20T00:29:24;97066.34;;;10.50;63.31
20015;BME280;61787;42.022;23.078;2023-02-20T00:30:25;97061.19;;;10.45;63.56
20015;BME280;61787;42.022;23.078;2023-02-20T00:31:27;97067.84;;;10.39;64.22
20015;BME280;61787;42.022;23.078;2023-02-20T00:32:29;97071.19;;;10.36;64.31
20015;BME280;61787;42.022;23.078;2023-02-20T00:33:30;97072.59;;;10.34;64.56
20015;BME280;61787;42.022;23.078;2023-02-20T00:34:32;97077.47;;;10.32;64.43
20015;BME280;61787;42.022;23.078;2023-02-20T00:35:33;97080.50;;;10.30;64.92
20015;BME280;61787;42.022;23.078;2023-02-20T00:36:35;97081.13;;;10.27;64.98
20015;BME280;61787;42.022;23.078;2023-02-20T00:37:37;97085.88;;;10.21;64.93
20015;BME280;61787;42.022;23.078;2023-02-20T00:38:41;97082.44;;;10.21;64.58
20015;BME280;61787;42.022;23.078;2023-02-20T00:39:43;97079.75;;;10.21;65.19
20015;BME280;61787;42.022;23.078;2023-02-20T00:40:44;97091.13;;;10.18;64.96
20015;BME280;61787;42.022;23.078;2023-02-20T00:41:46;97082.59;;;10.16;64.86
20015;BME280;61787;42.022;23.078;2023-02-20T00:42:48;97094.13;;;10.16;64.91
20015;BME280;61787;42.022;23.078;2023-02-20T00:43:49;97093.16;;;10.12;64.93
20015;BME280;61787;42.022;23.078;2023-02-20T00:44:51;97098.69;;;10.16;64.65
20015;BME280;61787;42.022;23.078;2023-02-20T00:45:52;97088.28;;;10.14;65.09
20015;BME280;61787;42.022;23.078;2023-02-20T00:46:54;97098.69;;;10.16;64.99
20015;BME280;61787;42.022;23.078;2023-02-20T00:47:55;97105.63;;;10.17;64.58
20015;BME280;61787;42.022;23.078;2023-02-20T00:48:57;97099.31;;;10.13;65.17
20015;BME280;61787;42.022;23.078;2023-02-20T00:49:59;97100.41;;;10.12;64.90
20015;BME280;61787;42.022;23.078;2023-02-20T00:51:00;97099.97;;;10.10;65.63
20015;BME280;61787;42.022;23.078;2023-02-20T00:52:02;97096.69;;;10.04;65.34
20015;BME280;61787;42.022;23.078;2023-02-20T00:53:03;97103.78;;;10.00;65.16
20015;BME280;61787;42.022;23.078;2023-02-20T00:54:05;97102.81;;;10.05;64.48
20015;BME280;61787;42.022;23.078;2023-02-20T00:55:07;97108.19;;;10.05;65.09
20015;BME280;61787;42.022;23.078;2023-02-20T00:56:11;97093.66;;;10.06;65.59
20015;BME280;61787;42.022;23.078;2023-02-20T00:57:13;97099.19;;;10.09;65.10
20015;BME280;61787;42.022;23.078;2023-02-20T00:58:14;97089.44;;;10.05;65.32
20015;BME280;61787;42.022;23.078;2023-02-20T00:59:16;97094.31;;;10.03;65.87
20015;BME280;61787;42.022;23.078;2023-02-20T01:00:22;97087.38;;;10.02;65.60
20015;BME280;61787;42.022;23.078;2023-02-20T01:01:24;97089.88;;;10.07;64.79
20015;BME280;61787;42.022;23.078;2023-02-20T01:02:25;97082.94;;;10.06;65.04
20015;BME280;61787;42.022;23.078;2023-02-20T01:03:27;97087.38;;;10.02;65.58
20015;BME280;61787;42.022;23.078;2023-02-20T01:04:29;97090.22;;;10.05;65.24
20015;BME280;61787;42.022;23.078;2023-02-20T01:05:30;97087.53;;;10.05;64.98
20015;BME280;61787;42.022;23.078;2023-02-20T01:06:32;97088.47;;;10.01;66.04
20015;BME280;61787;42.022;23.078;2023-02-20T01:07:33;97097.16;;;9.98;65.96
20015;BME280;61787;42.022;23.078;2023-02-20T01:08:35;97094.03;;;9.96;66.10
20015;BME280;61787;42.022;23.078;2023-02-20T01:09:36;97088.66;;;9.96;65.97
20015;BME280;61787;42.022;23.078;2023-02-20T01:10:38;97091.16;;;10.01;66.04
20015;BME280;61787;42.022;23.078;2023-02-20T01:11:41;97092.59;;;9.98;66.62
20015;BME280;61787;42.022;23.078;2023-02-20T01:12:43;97102.53;;;9.98;65.83
20015;BME280;61787;42.022;23.078;2023-02-20T01:13:45;97104.09;;;9.99;66.35
20015;BME280;61787;42.022;23.078;2023-02-20T01:14:46;97104.72;;;9.96;66.70
20015;BME280;61787;42.022;23.078;2023-02-20T01:15:48;97094.81;;;9.96;65.83
20015;BME280;61787;42.022;23.078;2023-02-20T01:16:51;97099.38;;;9.96;66.14
20015;BME280;61787;42.022;23.078;2023-02-20T01:17:53;97109.16;;;9.92;65.64
20015;BME280;61787;42.022;23.078;2023-02-20T01:18:55;97100.81;;;9.93;66.20
20015;BME280;61787;42.022;23.078;2023-02-20T01:19:56;97097.81;;;9.95;66.02
20015;BME280;61787;42.022;23.078;2023-02-20T01:20:58;97091.69;;;9.94;65.82
20015;BME280;61787;42.022;23.078;2023-02-20T01:21:59;97085.53;;;9.94;66.28
20015;BME280;61787;42.022;23.078;2023-02-20T01:23:01;97080.63;;;9.96;66.39
20015;BME280;61787;42.022;23.078;2023-02-20T01:24:03;97079.53;;;9.97;65.22
20015;BME280;61787;42.022;23.078;2023-02-20T01:25:05;97080.31;;;9.97;65.41
20015;BME280;61787;42.022;23.078;2023-02-20T01:26:06;97081.75;;;9.95;65.34
20015;BME280;61787;42.022;23.078;2023-02-20T01:27:08;97082.38;;;9.92;66.55
20015;BME280;61787;42.022;23.078;2023-02-20T01:28:10;97080.81;;;9.91;66.11
20015;BME280;61787;42.022;23.078;2023-02-20T01:29:13;97077.69;;;9.89;66.44
20015;BME280;61787;42.022;23.078;2023-02-20T01:30:14;97079.88;;;9.87;66.67
20015;BME280;61787;42.022;23.078;2023-02-20T01:31:16;97078.97;;;9.82;65.96
20015;BME280;61787;42.022;23.078;2023-02-20T01:32:18;97084.31;;;9.82;65.95
20015;BME280;61787;42.022;23.078;2023-02-20T01:33:19;97082.56;;;9.87;65.44
20015;BME280;61787;42.022;23.078;2023-02-20T01:34:21;97076.41;;;9.95;66.30
20015;BME280;61787;42.022;23.078;2023-02-20T01:35:23;97065.69;;;9.95;65.37
20015;BME280;61787;42.022;23.078;2023-02-20T01:36:25;97076.66;;;10.02;65.87
20015;BME280;61787;42.022;23.078;2023-02-20T01:37:27;97081.22;;;10.01;65.98
20015;BME280;61787;42.022;23.078;2023-02-20T01:38:29;97073.81;;;10.07;65.56
20015;BME280;61787;42.022;23.078;2023-02-20T01:39:30;97082.94;;;10.06;65.53
20015;BME280;61787;42.022;23.078;2023-02-20T01:40:33;97079.34;;;10.02;64.91
20015;BME280;61787;42.022;23.078;2023-02-20T01:41:35;97085.19;;;10.04;65.21
20015;BME280;61787;42.022;23.078;2023-02-20T01:42:36;97083.59;;;10.03;65.17
20015;BME280;61787;42.022;23.078;2023-02-20T01:43:38;97087.38;;;10.02;64.78
20015;BME280;61787;42.022;23.078;2023-02-20T01:44:40;97096.69;;;9.96;65.23
20015;BME280;61787;42.022;23.078;2023-02-20T01:45:42;97100.94;;;9.97;65.64
20015;BME280;61787;42.022;23.078;2023-02-20T01:46:47;97103.97;;;9.87;64.92
20015;BME280;61787;42.022;23.078;2023-02-20T01:47:52;97107.31;;;9.83;65.65
20015;BME280;61787;42.022;23.078;2023-02-20T01:49:09;97107.16;;;9.80;64.90
20015;BME280;61787;42.022;23.078;2023-02-20T01:50:13;97109.25;;;9.74;65.12
20015;BME280;61787;42.022;23.078;2023-02-20T01:51:15;97108.28;;;9.70;66.02
20015;BME280;61787;42.022;23.078;2023-02-20T01:52:25;97109.59;;;9.64;66.33
20015;BME280;61787;42.022;23.078;2023-02-20T01:53:28;97104.22;;;9.64;66.52
20015;BME280;61787;42.022;23.078;2023-02-20T01:54:31;97101.84;;;9.63;66.08
20015;BME280;61787;42.022;23.078;2023-02-20T01:55:48;97115.72;;;9.56;66.42
20015;BME280;61787;42.022;23.078;2023-02-20T01:56:52;97112.13;;;9.52;66.88
20015;BME280;61787;42.022;23.078;2023-02-20T01:58:02;97121.25;;;9.51;67.13
20015;BME280;61787;42.022;23.078;2023-02-20T01:59:06;97121.59;;;9.41;67.78
20015;BME280;61787;42.022;23.078;2023-02-20T02:00:12;97121.44;;;9.29;68.16
20015;BME280;61787;42.022;23.078;2023-02-20T02:01:15;97126.31;;;9.27;67.83
20015;BME280;61787;42.022;23.078;2023-02-20T02:02:17;97122.22;;;9.21;68.59
20015;BME280;61787;42.022;23.078;2023-02-20T02:03:23;97126.78;;;9.20;68.77
20015;BME280;61787;42.022;23.078;2023-02-20T02:04:26;97122.09;;;9.17;69.34
20015;BME280;61787;42.022;23.078;2023-02-20T02:05:30;97122.56;;;9.11;70.20
20015;BME280;61787;42.022;23.078;2023-02-20T02:06:33;97119.41;;;9.09;69.55
20015;BME280;61787;42.022;23.078;2023-02-20T02:07:36;97119.41;;;9.09;69.32
20015;BME280;61787;42.022;23.078;2023-02-20T02:08:38;97118.59;;;9.08;69.48
20015;BME280;61787;42.022;23.078;2023-02-20T02:10:02;97108.69;;;9.09;69.55
20015;BME280;61787;42.022;23.078;2023-02-20T02:11:17;97114.19;;;9.04;69.69
20015;BME280;61787;42.022;23.078;2023-02-20T02:12:19;97112.50;;;9.08;69.67
20015;BME280;61787;42.022;23.078;2023-02-20T02:13:21;97107.28;;;9.11;69.37
20015;BME280;61787;42.022;23.078;2023-02-20T02:14:23;97110.13;;;9.15;69.12
20015;BME280;61787;42.022;23.078;2023-02-20T02:15:24;97113.56;;;9.15;69.36
20015;BME280;61787;42.022;23.078;2023-02-20T02:16:57;97118.94;;;9.15;69.33
20015;BME280;61787;42.022;23.078;2023-02-20T02:18:36;97122.41;;;9.16;69.31
20015;BME280;61787;42.022;23.078;2023-02-20T02:21:16;97128.53;;;9.16;69.26
20015;BME280;61787;42.022;23.078;2023-02-20T02:24:23;97125.22;;;9.19;69.78
20015;BME280;61787;42.022;23.078;2023-02-20T02:37:32;97145.19;;;9.39;69.27
20015;BME280;61787;42.022;23.078;2023-02-20T02:38:50;97153.06;;;9.44;69.22
20015;BME280;61787;42.022;23.078;2023-02-20T02:42:40;97160.13;;;9.57;69.15
20015;BME280;61787;42.022;23.078;2023-02-20T02:43:52;97167.25;;;9.53;69.42
20015;BME280;61787;42.022;23.078;2023-02-20T02:45:17;97168.78;;;9.54;68.74
20015;BME280;61787;42.022;23.078;2023-02-20T02:46:39;97167.25;;;9.53;69.38
20015;BME280;61787;42.022;23.078;2023-02-20T02:47:54;97169.59;;;9.46;69.92
20015;BME280;61787;42.022;23.078;2023-02-20T02:49:02;97170.38;;;9.47;69.64
20015;BME280;61787;42.022;23.078;2023-02-20T02:50:36;97169.44;;;9.51;69.27
20015;BME280;61787;42.022;23.078;2023-02-20T02:51:40;97172.41;;;9.50;70.21
20015;BME280;61787;42.022;23.078;2023-02-20T02:52:47;97171.19;;;9.47;69.37
20015;BME280;61787;42.022;23.078;2023-02-20T02:54:14;97180.28;;;9.55;69.13
20015;BME280;61787;42.022;23.078;2023-02-20T02:55:23;97175.09;;;9.58;69.45
20015;BME280;61787;42.022;23.078;2023-02-20T02:56:33;97179.34;;;9.59;69.85
20015;BME280;61787;42.022;23.078;2023-02-20T02:57:34;97180.47;;;9.58;69.63
20015;BME280;61787;42.022;23.078;2023-02-20T02:58:36;97190.69;;;9.56;70.40
20015;BME280;61787;42.022;23.078;2023-02-20T02:59:38;97183.44;;;9.57;70.51
20015;BME280;61787;42.022;23.078;2023-02-20T03:00:48;97194.00;;;9.53;70.73
20015;BME280;61787;42.022;23.078;2023-02-20T03:01:56;97199.97;;;9.50;70.32
20015;BME280;61787;42.022;23.078;2023-02-20T03:04:06;97192.09;;;9.45;70.89
20015;BME280;61787;42.022;23.078;2023-02-20T03:05:12;97196.53;;;9.41;70.54
20015;BME280;61787;42.022;23.078;2023-02-20T03:06:20;97191.63;;;9.34;71.08
20015;BME280;61787;42.022;23.078;2023-02-20T03:07:24;97191.78;;;9.29;71.07
20015;BME280;61787;42.022;23.078;2023-02-20T03:09:37;97209.44;;;9.22;71.93
20015;BME280;61787;42.022;23.078;2023-02-20T03:10:42;97205.31;;;9.16;72.05
20015;BME280;61787;42.022;23.078;2023-02-20T03:11:45;97204.53;;;9.15;71.69
20015;BME280;61787;42.022;23.078;2023-02-20T03:12:48;97206.91;;;9.17;71.22
20015;BME280;61787;42.022;23.078;2023-02-20T03:14:13;97203.75;;;9.15;71.74
20015;BME280;61787;42.022;23.078;2023-02-20T03:15:38;97207.50;;;9.14;71.69
20015;BME280;61787;42.022;23.078;2023-02-20T03:19:35;97222.13;;;8.99;73.10
20015;BME280;61787;42.022;23.078;2023-02-20T03:20:50;97219.16;;;9.01;73.17
20015;BME280;61787;42.022;23.078;2023-02-20T03:21:55;97230.81;;;9.05;73.04
20015;BME280;61787;42.022;23.078;2023-02-20T03:23:00;97227.34;;;9.04;73.35
20015;BME280;61787;42.022;23.078;2023-02-20T03:24:04;97235.06;;;9.06;73.30
20015;BME280;61787;42.022;23.078;2023-02-20T03:26:59;97224.81;;;8.99;73.27
20015;BME280;61787;42.022;23.078;2023-02-20T03:28:08;97227.03;;;9.06;73.21
20015;BME280;61787;42.022;23.078;2023-02-20T03:29:28;97233.47;;;9.13;73.22
20015;BME280;61787;42.022;23.078;2023-02-20T03:30:44;97230.81;;;9.13;74.50
20015;BME280;61787;42.022;23.078;2023-02-20T03:31:52;97227.97;;;9.18;74.49
20015;BME280;61787;42.022;23.078;2023-02-20T03:33:18;97234.75;;;9.24;74.40
20015;BME280;61787;42.022;23.078;2023-02-20T03:34:41;97238.88;;;9.22;74.36
20015;BME280;61787;42.022;23.078;2023-02-20T03:36:06;97253.03;;;9.22;74.67
20015;BME280;61787;42.022;23.078;2023-02-20T03:37:30;97247.97;;;9.21;74.39
20015;BME280;61787;42.022;23.078;2023-02-20T03:38:58;97264.19;;;9.16;75.72
20015;BME280;61787;42.022;23.078;2023-02-20T03:40:21;97264.53;;;9.23;76.06
20015;BME280;61787;42.022;23.078;2023-02-20T03:41:42;97265.47;;;9.27;76.54
20015;BME280;61787;42.022;23.078;2023-02-20T03:43:09;97262.00;;;9.35;77.22
20015;BME280;61787;42.022;23.078;2023-02-20T03:44:34;97262.78;;;9.44;76.68
20015;BME280;61787;42.022;23.078;2023-02-20T03:45:38;97268.31;;;9.39;76.59
20015;BME280;61787;42.022;23.078;2023-02-20T03:46:43;97265.47;;;9.44;76.65
20015;BME280;61787;42.022;23.078;2023-02-20T03:47:49;97266.59;;;9.43;75.84
20015;BME280;61787;42.022;23.078;2023-02-20T03:49:04;97275.22;;;9.40;76.41
20015;BME280;61787;42.022;23.078;2023-02-20T03:50:08;97270.53;;;9.37;76.92
20015;BME280;61787;42.022;23.078;2023-02-20T03:51:29;97276.81;;;9.32;76.31
20015;BME280;61787;42.022;23.078;2023-02-20T03:52:31;97273.97;;;9.29;76.23
20015;BME280;61787;42.022;23.078;2023-02-20T03:53:33;97276.47;;;9.34;76.60
20015;BME280;61787;42.022;23.078;2023-02-20T03:54:35;97277.13;;;9.31;76.37
20015;BME280;61787;42.022;23.078;2023-02-20T03:55:37;97286.25;;;9.30;76.47
20015;BME280;61787;42.022;23.078;2023-02-20T03:56:44;97277.91;;;9.31;76.19
20015;BME280;61787;42.022;23.078;2023-02-20T03:57:56;97265.63;;;9.30;76.41
20015;BME280;61787;42.022;23.078;2023-02-20T03:59:11;97270.66;;;9.32;76.66
20015;BME280;61787;42.022;23.078;2023-02-20T04:00:35;97268.59;;;9.29;76.65
20015;BME280;61787;42.022;23.078;2023-02-20T04:01:42;97272.06;;;9.29;76.58
20015;BME280;61787;42.022;23.078;2023-02-20T04:02:46;97273.19;;;9.28;76.80
20015;BME280;61787;42.022;23.078;2023-02-20T04:03:51;97266.41;;;9.31;76.55
20015;BME280;61787;42.022;23.078;2023-02-20T04:04:57;97265.31;;;9.32;76.23
20015;BME280;61787;42.022;23.078;2023-02-20T04:06:03;97264.22;;;9.33;76.96
20015;BME280;61787;42.022;23.078;2023-02-20T04:07:11;97267.34;;;9.35;76.72
20015;BME280;61787;42.022;23.078;2023-02-20T04:08:25;97272.25;;;9.41;75.83
20015;BME280;61787;42.022;23.078;2023-02-20T04:09:32;97267.84;;;9.46;75.38
20015;BME280;61787;42.022;23.078;2023-02-20T04:10:43;97278.09;;;9.52;75.62
20015;BME280;61787;42.022;23.078;2023-02-20T04:11:50;97277.75;;;9.45;75.59
20015;BME280;61787;42.022;23.078;2023-02-20T04:12:54;97275.56;;;9.47;75.02
20015;BME280;61787;42.022;23.078;2023-02-20T04:13:57;97275.56;;;9.47;75.19
20015;BME280;61787;42.022;23.078;2023-02-20T04:15:00;97277.47;;;9.47;75.89
20015;BME280;61787;42.022;23.078;2023-02-20T04:16:03;97282.66;;;9.52;75.36
20015;BME280;61787;42.022;23.078;2023-02-20T04:17:10;97287.38;;;9.55;75.41
20015;BME280;61787;42.022;23.078;2023-02-20T04:18:19;97288.66;;;9.57;74.44
20015;BME280;61787;42.022;23.078;2023-02-20T04:19:21;97286.13;;;9.61;74.73
20015;BME280;61787;42.022;23.078;2023-02-20T04:20:24;97303.63;;;9.58;74.92
20015;BME280;61787;42.022;23.078;2023-02-20T04:21:34;97299.50;;;9.61;74.96
20015;BME280;61787;42.022;23.078;2023-02-20T04:22:41;97304.56;;;9.54;75.64
20015;BME280;61787;42.022;23.078;2023-02-20T04:23:46;97311.78;;;9.53;74.53
20015;BME280;61787;42.022;23.078;2023-02-20T04:26:56;97310.38;;;9.47;75.67
20015;BME280;61787;42.022;23.078;2023-02-20T04:27:58;97316.50;;;9.56;75.95
20015;BME280;61787;42.022;23.078;2023-02-20T04:29:00;97311.78;;;9.53;75.83
20015;BME280;61787;42.022;23.078;2023-02-20T04:30:02;97304.53;;;9.45;76.01
20015;BME280;61787;42.022;23.078;2023-02-20T04:31:04;97310.06;;;9.49;76.14
20015;BME280;61787;42.022;23.078;2023-02-20T04:32:06;97310.66;;;9.54;75.42
20015;BME280;61787;42.022;23.078;2023-02-20T04:33:12;97310.38;;;9.56;75.59
20015;BME280;61787;42.022;23.078;2023-02-20T04:34:14;97305.94;;;9.60;75.04
20015;BME280;61787;42.022;23.078;2023-02-20T04:35:18;97310.38;;;9.56;76.18
20015;BME280;61787;42.022;23.078;2023-02-20T04:36:21;97310.66;;;9.54;75.86
20015;BME280;61787;42.022;23.078;2023-02-20T04:37:23;97318.69;;;9.54;75.53
20015;BME280;61787;42.022;23.078;2023-02-20T04:38:25;97320.28;;;9.55;76.02
20015;BME280;61787;42.022;23.078;2023-02-20T04:39:26;97319.34;;;9.51;75.12
20015;BME280;61787;42.022;23.078;2023-02-20T04:40:28;97318.69;;;9.54;75.39
20015;BME280;61787;42.022;23.078;2023-02-20T04:41:29;97319.34;;;9.51;75.92
20015;BME280;61787;42.022;23.078;2023-02-20T04:42:33;97318.88;;;9.58;75.96
20015;BME280;61787;42.022;23.078;2023-02-20T04:43:35;97325.03;;;9.58;76.05
20015;BME280;61787;42.022;23.078;2023-02-20T04:44:36;97308.31;;;9.61;75.65
20015;BME280;61787;42.022;23.078;2023-02-20T04:45:40;97323.91;;;9.59;75.67
20015;BME280;61787;42.022;23.078;2023-02-20T04:46:42;97318.09;;;9.57;75.86
20015;BME280;61787;42.022;23.078;2023-02-20T04:47:44;97311.66;;;9.58;75.30
20015;BME280;61787;42.022;23.078;2023-02-20T04:48:45;97319.03;;;9.53;76.26
20015;BME280;61787;42.022;23.078;2023-02-20T04:49:47;97318.84;;;9.49;77.08
20015;BME280;61787;42.022;23.078;2023-02-20T04:50:49;97320.13;;;9.52;76.87
20015;BME280;61787;42.022;23.078;2023-02-20T04:51:50;97323.59;;;9.44;77.10
20015;BME280;61787;42.022;23.078;2023-02-20T04:52:53;97328.16;;;9.43;77.31
20015;BME280;61787;42.022;23.078;2023-02-20T04:53:54;97326.56;;;9.42;75.79
20015;BME280;61787;42.022;23.078;2023-02-20T04:54:57;97330.84;;;9.52;75.77
20015;BME280;61787;42.022;23.078;2023-02-20T04:55:59;97332.56;;;9.56;76.09
20015;BME280;61787;42.022;23.078;2023-02-20T04:57:00;97329.75;;;9.61;76.01
20015;BME280;61787;42.022;23.078;2023-02-20T04:58:02;97336.38;;;9.64;75.74
20015;BME280;61787;42.022;23.078;2023-02-20T04:59:04;97337.16;;;9.64;75.73
20015;BME280;61787;42.022;23.078;2023-02-20T05:00:06;97338.41;;;9.67;75.69
20015;BME280;61787;42.022;23.078;2023-02-20T05:01:09;97336.03;;;9.65;75.28
20015;BME280;61787;42.022;23.078;2023-02-20T05:02:10;97329.13;;;9.64;75.07
20015;BME280;61787;42.022;23.078;2023-02-20T05:03:12;97329.91;;;9.65;75.40
20015;BME280;61787;42.022;23.078;2023-02-20T05:04:14;97334.00;;;9.71;75.57
20015;BME280;61787;42.022;23.078;2023-02-20T05:06:18;97337.97;;;9.73;74.88
20015;BME280;61787;42.022;23.078;2023-02-20T05:07:19;97337.47;;;9.80;74.44
20015;BME280;61787;42.022;23.078;2023-02-20T05:08:21;97335.13;;;9.78;74.68
20015;BME280;61787;42.022;23.078;2023-02-20T05:09:23;97339.22;;;9.76;74.10
20015;BME280;61787;42.022;23.078;2023-02-20T05:10:26;97334.19;;;9.74;74.53
20015;BME280;61787;42.022;23.078;2023-02-20T05:11:27;97337.16;;;9.73;74.83
20015;BME280;61787;42.022;23.078;2023-02-20T05:12:29;97346.78;;;9.74;74.68
20015;BME280;61787;42.022;23.078;2023-02-20T05:13:31;97340.63;;;9.73;74.54
20015;BME280;61787;42.022;23.078;2023-02-20T05:14:32;97347.72;;;9.69;75.04
20015;BME280;61787;42.022;23.078;2023-02-20T05:15:34;97353.09;;;9.69;73.83
20015;BME280;61787;42.022;23.078;2023-02-20T05:16:38;97349.91;;;9.67;74.19
20015;BME280;61787;42.022;23.078;2023-02-20T05:17:40;97345.19;;;9.64;74.42
20015;BME280;61787;42.022;23.078;2023-02-20T05:18:42;97353.09;;;9.69;74.10
20015;BME280;61787;42.022;23.078;2023-02-20T05:19:43;97360.78;;;9.71;74.11
20015;BME280;61787;42.022;23.078;2023-02-20T05:20:45;97365.34;;;9.70;74.75
20015;BME280;61787;42.022;23.078;2023-02-20T05:22:10;97363.16;;;9.72;74.39
20015;BME280;61787;42.022;23.078;2023-02-20T05:23:21;97365.19;;;9.67;nan
20015;BME280;61787;42.022;23.078;2023-02-20T05:24:23;97361.88;;;9.61;74.69
20015;BME280;61787;42.022;23.078;2023-02-20T05:25:24;97364.56;;;9.61;74.12
20015;BME280;61787;42.022;23.078;2023-02-20T05:26:26;97364.41;;;9.66;74.37
20015;BME280;61787;42.022;23.078;2023-02-20T05:27:28;97369.91;;;9.70;74.16
20015;BME280;61787;42.022;23.078;2023-02-20T05:28:29;97366.31;;;9.74;73.73
20015;BME280;61787;42.022;23.078;2023-02-20T05:29:31;97367.72;;;9.72;74.06
20015;BME280;61787;42.022;23.078;2023-02-20T05:30:33;97374.03;;;9.67;73.75
20015;BME280;61787;42.022;23.078;2023-02-20T05:31:35;97377.78;;;9.66;73.95
20015;BME280;61787;42.022;23.078;2023-02-20T05:32:37;97382.81;;;9.59;73.61
20015;BME280;61787;42.022;23.078;2023-02-20T05:33:38;97386.91;;;9.57;74.51
20015;BME280;61787;42.022;23.078;2023-02-20T05:34:40;97392.72;;;9.50;74.45
20015;BME280;61787;42.022;23.078;2023-02-20T05:35:41;97395.38;;;9.50;73.52
20015;BME280;61787;42.022;23.078;2023-02-20T05:36:43;97395.88;;;9.52;74.23
20015;BME280;61787;42.022;23.078;2023-02-20T05:37:45;97400.13;;;9.53;73.50
20015;BME280;61787;42.022;23.078;2023-02-20T05:38:46;97401.41;;;9.56;72.89
20015;BME280;61787;42.022;23.078;2023-02-20T05:39:50;97412.41;;;9.54;73.09
20015;BME280;61787;42.022;23.078;2023-02-20T05:40:51;97412.88;;;9.56;73.10
20015;BME280;61787;42.022;23.078;2023-02-20T05:41:53;97414.19;;;9.67;74.15
20015;BME280;61787;42.022;23.078;2023-02-20T05:42:54;97416.56;;;9.69;72.80
20015;BME280;61787;42.022;23.078;2023-02-20T05:43:56;97417.66;;;9.68;72.33
20015;BME280;61787;42.022;23.078;2023-02-20T05:44:59;97415.44;;;9.61;72.06
20015;BME280;61787;42.022;23.078;2023-02-20T05:46:02;97417.00;;;9.62;72.55
20015;BME280;61787;42.022;23.078;2023-02-20T05:47:04;97422.50;;;9.57;72.99
20015;BME280;61787;42.022;23.078;2023-02-20T05:48:06;97427.22;;;9.60;72.69
20015;BME280;61787;42.022;23.078;2023-02-20T05:49:08;97423.59;;;9.56;73.40
20015;BME280;61787;42.022;23.078;2023-02-20T05:50:10;97434.16;;;9.61;72.76
20015;BME280;61787;42.022;23.078;2023-02-20T05:51:28;97435.75;;;9.62;71.92
20015;BME280;61787;42.022;23.078;2023-02-20T05:52:29;97436.06;;;9.61;71.61
20015;BME280;61787;42.022;23.078;2023-02-20T05:53:31;97440.63;;;9.60;71.27
20015;BME280;61787;42.022;23.078;2023-02-20T05:54:33;97442.34;;;9.56;70.85
20015;BME280;61787;42.022;23.078;2023-02-20T05:55:35;97448.97;;;9.59;70.81
20015;BME280;61787;42.022;23.078;2023-02-20T05:56:41;97449.88;;;9.54;71.14
20015;BME280;61787;42.022;23.078;2023-02-20T05:57:43;97446.59;;;9.57;70.49
20015;BME280;61787;42.022;23.078;2023-02-20T05:58:45;97446.59;;;9.57;70.03
20015;BME280;61787;42.022;23.078;2023-02-20T05:59:46;97461.56;;;9.58;70.45
20015;BME280;61787;42.022;23.078;2023-02-20T06:00:48;97458.25;;;9.61;70.82
20015;BME280;61787;42.022;23.078;2023-02-20T06:01:55;97460.34;;;9.64;69.58
20015;BME280;61787;42.022;23.078;2023-02-20T06:02:56;97462.53;;;9.62;70.09
20015;BME280;61787;42.022;23.078;2023-02-20T06:03:58;97471.81;;;9.65;70.21
20015;BME280;61787;42.022;23.078;2023-02-20T06:05:02;97471.50;;;9.66;70.02
20015;BME280;61787;42.022;23.078;2023-02-20T06:06:05;97476.25;;;9.69;68.70
20015;BME280;61787;42.022;23.078;2023-02-20T06:07:08;97481.63;;;9.69;68.76
20015;BME280;61787;42.022;23.078;2023-02-20T06:08:12;97475.00;;;9.75;68.20
20015;BME280;61787;42.022;23.078;2023-02-20T06:09:14;97485.09;;;9.78;68.62
20015;BME280;61787;42.022;23.078;2023-02-20T06:10:18;97488.25;;;9.80;67.92
20015;BME280;61787;42.022;23.078;2023-02-20T06:11:19;97486.41;;;9.90;67.96